sensor_id;sensor_type;location;lat;lon;timestamp;P1;durP1;ratioP1;P2;durP2;ratioP2
39518;SDS011;25200;53.394;10.414;2024-01-15T00:01:55;5.10;;;1.25;;
39518;SDS011;25200;53.394;10.414;2024-01-15T00:04:21;5.78;;;1.60;;
39518;SDS011;25200;53.394;10.414;2024-01-15T00:06:47;9.52;;;1.65;;
39518;SDS011;25200;53.394;10.414;2024-01-15T00:09:14;5.55;;;1.45;;
39518;SDS011;25200;53.394;10.414;2024-01-15T00:11:40;9.18;;;1.33;;
39518;SDS011;25200;53.394;10.414;2024-01-15T00:14:07;8.88;;;1.95;;
39518;SDS011;25200;53.394;10.414;2024-01-15T00:16:33;8.77;;;1.48;;
39518;SDS011;25200;53.394;10.414;2024-01-15T00:18:59;4.43;;;1.35;;
39518;SDS011;25200;53.394;10.414;2024-01-15T00:21:24;8.32;;;1.60;;
39518;SDS011;25200;53.394;10.414;2024-01-15T00:23:50;5.68;;;1.35;;
39518;SDS011;25200;53.394;10.414;2024-01-15T00:26:16;9.82;;;2.05;;
39518;SDS011;25200;53.394;10.414;2024-01-15T00:28:41;9.45;;;1.65;;
39518;SDS011;25200;53.394;10.414;2024-01-15T00:31:08;9.60;;;1.42;;
39518;SDS011;25200;53.394;10.414;2024-01-15T00:33:34;10.88;;;1.90;;
39518;SDS011;25200;53.394;10.414;2024-01-15T00:36:00;9.90;;;1.63;;
39518;SDS011;25200;53.394;10.414;2024-01-15T00:38:26;8.68;;;1.58;;
39518;SDS011;25200;53.394;10.414;2024-01-15T00:40:51;7.65;;;1.52;;
39518;SDS011;25200;53.394;10.414;2024-01-15T00:43:17;10.52;;;1.77;;
39518;SDS011;25200;53.394;10.414;2024-01-15T00:45:44;8.23;;;1.45;;
39518;SDS011;25200;53.394;10.414;2024-01-15T00:48:10;6.57;;;1.35;;
39518;SDS011;25200;53.394;10.414;2024-01-15T00:50:36;7.32;;;1.65;;
39518;SDS011;25200;53.394;10.414;2024-01-15T00:53:01;6.53;;;1.25;;
39518;SDS011;25200;53.394;10.414;2024-01-15T00:55:28;6.85;;;1.85;;
39518;SDS011;25200;53.394;10.414;2024-01-15T00:57:54;6.50;;;1.40;;
39518;SDS011;25200;53.394;10.414;2024-01-15T01:00:20;6.82;;;1.40;;
39518;SDS011;25200;53.394;10.414;2024-01-15T01:02:46;11.15;;;1.38;;
39518;SDS011;25200;53.394;10.414;2024-01-15T01:05:11;6.25;;;1.48;;
39518;SDS011;25200;53.394;10.414;2024-01-15T01:07:37;7.38;;;1.65;;
39518;SDS011;25200;53.394;10.414;2024-01-15T01:10:03;7.38;;;1.60;;
39518;SDS011;25200;53.394;10.414;2024-01-15T01:12:29;9.85;;;1.38;;
39518;SDS011;25200;53.394;10.414;2024-01-15T01:14:55;9.23;;;1.92;;
39518;SDS011;25200;53.394;10.414;2024-01-15T01:17:21;6.75;;;1.73;;
39518;SDS011;25200;53.394;10.414;2024-01-15T01:19:47;13.73;;;2.33;;
39518;SDS011;25200;53.394;10.414;2024-01-15T01:22:12;14.70;;;1.75;;
39518;SDS011;25200;53.394;10.414;2024-01-15T01:24:38;7.57;;;1.42;;
39518;SDS011;25200;53.394;10.414;2024-01-15T01:27:04;16.20;;;2.72;;
39518;SDS011;25200;53.394;10.414;2024-01-15T01:29:29;8.73;;;1.77;;
39518;SDS011;25200;53.394;10.414;2024-01-15T01:31:55;11.95;;;2.00;;
39518;SDS011;25200;53.394;10.414;2024-01-15T01:34:21;10.75;;;2.22;;
39518;SDS011;25200;53.394;10.414;2024-01-15T01:36:47;5.63;;;1.48;;
39518;SDS011;25200;53.394;10.414;2024-01-15T01:39:12;8.75;;;1.88;;
39518;SDS011;25200;53.394;10.414;2024-01-15T01:41:38;13.07;;;1.92;;
39518;SDS011;25200;53.394;10.414;2024-01-15T01:44:05;7.50;;;1.50;;
39518;SDS011;25200;53.394;10.414;2024-01-15T01:46:30;11.15;;;2.10;;
39518;SDS011;25200;53.394;10.414;2024-01-15T01:48:56;8.27;;;1.73;;
39518;SDS011;25200;53.394;10.414;2024-01-15T01:51:23;9.68;;;1.98;;
39518;SDS011;25200;53.394;10.414;2024-01-15T01:53:50;9.98;;;1.77;;
39518;SDS011;25200;53.394;10.414;2024-01-15T01:56:16;7.35;;;1.63;;
39518;SDS011;25200;53.394;10.414;2024-01-15T01:58:43;7.47;;;1.20;;
39518;SDS011;25200;53.394;10.414;2024-01-15T02:01:12;8.70;;;1.65;;
39518;SDS011;25200;53.394;10.414;2024-01-15T02:03:39;8.00;;;1.45;;
39518;SDS011;25200;53.394;10.414;2024-01-15T02:06:05;12.77;;;1.73;;
39518;SDS011;25200;53.394;10.414;2024-01-15T02:08:31;7.82;;;1.55;;
39518;SDS011;25200;53.394;10.414;2024-01-15T02:10:57;7.78;;;1.60;;
39518;SDS011;25200;53.394;10.414;2024-01-15T02:13:23;9.10;;;1.52;;
39518;SDS011;25200;53.394;10.414;2024-01-15T02:15:49;7.70;;;1.45;;
39518;SDS011;25200;53.394;10.414;2024-01-15T02:18:14;10.85;;;1.45;;
39518;SDS011;25200;53.394;10.414;2024-01-15T02:20:40;9.50;;;1.60;;
39518;SDS011;25200;53.394;10.414;2024-01-15T02:23:09;6.45;;;1.35;;
39518;SDS011;25200;53.394;10.414;2024-01-15T02:25:37;7.75;;;1.38;;
39518;SDS011;25200;53.394;10.414;2024-01-15T02:28:05;7.20;;;1.30;;
39518;SDS011;25200;53.394;10.414;2024-01-15T02:30:32;2.97;;;0.77;;
39518;SDS011;25200;53.394;10.414;2024-01-15T02:33:03;6.70;;;1.30;;
39518;SDS011;25200;53.394;10.414;2024-01-15T02:35:28;5.30;;;1.00;;
39518;SDS011;25200;53.394;10.414;2024-01-15T02:37:54;3.58;;;1.00;;
39518;SDS011;25200;53.394;10.414;2024-01-15T02:40:20;6.05;;;1.10;;
39518;SDS011;25200;53.394;10.414;2024-01-15T02:42:45;8.60;;;1.33;;
39518;SDS011;25200;53.394;10.414;2024-01-15T02:45:11;4.22;;;0.98;;
39518;SDS011;25200;53.394;10.414;2024-01-15T02:47:37;5.97;;;1.23;;
39518;SDS011;25200;53.394;10.414;2024-01-15T02:50:02;4.95;;;1.17;;
39518;SDS011;25200;53.394;10.414;2024-01-15T02:52:28;4.38;;;0.88;;
39518;SDS011;25200;53.394;10.414;2024-01-15T02:54:54;5.10;;;1.45;;
39518;SDS011;25200;53.394;10.414;2024-01-15T02:57:20;5.68;;;1.05;;
39518;SDS011;25200;53.394;10.414;2024-01-15T02:59:45;10.13;;;1.60;;
39518;SDS011;25200;53.394;10.414;2024-01-15T03:02:11;6.25;;;0.98;;
39518;SDS011;25200;53.394;10.414;2024-01-15T03:04:37;10.43;;;1.27;;
39518;SDS011;25200;53.394;10.414;2024-01-15T03:07:02;7.82;;;1.25;;
39518;SDS011;25200;53.394;10.414;2024-01-15T03:09:28;13.50;;;1.70;;
39518;SDS011;25200;53.394;10.414;2024-01-15T03:11:54;9.40;;;1.75;;
39518;SDS011;25200;53.394;10.414;2024-01-15T03:14:19;6.22;;;1.30;;
39518;SDS011;25200;53.394;10.414;2024-01-15T03:16:45;3.03;;;1.00;;
39518;SDS011;25200;53.394;10.414;2024-01-15T03:19:11;6.68;;;1.17;;
39518;SDS011;25200;53.394;10.414;2024-01-15T03:21:36;7.63;;;1.50;;
39518;SDS011;25200;53.394;10.414;2024-01-15T03:24:02;8.93;;;1.20;;
39518;SDS011;25200;53.394;10.414;2024-01-15T03:26:28;7.13;;;1.20;;
39518;SDS011;25200;53.394;10.414;2024-01-15T03:28:53;8.15;;;1.25;;
39518;SDS011;25200;53.394;10.414;2024-01-15T03:31:19;7.65;;;1.13;;
39518;SDS011;25200;53.394;10.414;2024-01-15T03:33:48;8.63;;;1.23;;
39518;SDS011;25200;53.394;10.414;2024-01-15T03:36:13;7.05;;;1.10;;
39518;SDS011;25200;53.394;10.414;2024-01-15T03:38:42;7.45;;;1.02;;
39518;SDS011;25200;53.394;10.414;2024-01-15T03:41:07;5.15;;;0.95;;
39518;SDS011;25200;53.394;10.414;2024-01-15T03:43:33;4.47;;;0.90;;
39518;SDS011;25200;53.394;10.414;2024-01-15T03:45:59;3.55;;;1.00;;
39518;SDS011;25200;53.394;10.414;2024-01-15T03:48:25;5.35;;;1.20;;
39518;SDS011;25200;53.394;10.414;2024-01-15T03:50:50;7.45;;;1.50;;
39518;SDS011;25200;53.394;10.414;2024-01-15T03:53:16;4.53;;;1.05;;
39518;SDS011;25200;53.394;10.414;2024-01-15T03:55:42;5.88;;;1.35;;
39518;SDS011;25200;53.394;10.414;2024-01-15T03:58:07;6.75;;;1.60;;
39518;SDS011;25200;53.394;10.414;2024-01-15T04:00:33;9.60;;;1.70;;
39518;SDS011;25200;53.394;10.414;2024-01-15T04:02:59;6.05;;;1.40;;
39518;SDS011;25200;53.394;10.414;2024-01-15T04:05:25;7.78;;;1.52;;
39518;SDS011;25200;53.394;10.414;2024-01-15T04:07:51;9.18;;;1.83;;
39518;SDS011;25200;53.394;10.414;2024-01-15T04:10:16;7.10;;;1.58;;
39518;SDS011;25200;53.394;10.414;2024-01-15T04:12:42;11.57;;;1.63;;
39518;SDS011;25200;53.394;10.414;2024-01-15T04:15:08;7.20;;;1.42;;
39518;SDS011;25200;53.394;10.414;2024-01-15T04:17:33;7.68;;;1.50;;
39518;SDS011;25200;53.394;10.414;2024-01-15T04:19:59;7.53;;;1.20;;
39518;SDS011;25200;53.394;10.414;2024-01-15T04:22:25;11.35;;;1.63;;
39518;SDS011;25200;53.394;10.414;2024-01-15T04:24:52;15.45;;;2.05;;
39518;SDS011;25200;53.394;10.414;2024-01-15T04:27:17;11.30;;;1.27;;
39518;SDS011;25200;53.394;10.414;2024-01-15T04:29:43;7.70;;;1.63;;
39518;SDS011;25200;53.394;10.414;2024-01-15T04:32:09;16.85;;;2.53;;
39518;SDS011;25200;53.394;10.414;2024-01-15T04:34:35;14.48;;;2.05;;
39518;SDS011;25200;53.394;10.414;2024-01-15T04:37:01;13.70;;;2.28;;
39518;SDS011;25200;53.394;10.414;2024-01-15T04:39:27;9.50;;;1.73;;
39518;SDS011;25200;53.394;10.414;2024-01-15T04:41:52;18.42;;;2.83;;
39518;SDS011;25200;53.394;10.414;2024-01-15T04:44:18;7.15;;;1.70;;
39518;SDS011;25200;53.394;10.414;2024-01-15T04:46:44;11.48;;;1.92;;
39518;SDS011;25200;53.394;10.414;2024-01-15T04:49:10;12.15;;;1.67;;
39518;SDS011;25200;53.394;10.414;2024-01-15T04:51:36;8.48;;;1.73;;
39518;SDS011;25200;53.394;10.414;2024-01-15T04:54:02;11.85;;;1.73;;
39518;SDS011;25200;53.394;10.414;2024-01-15T04:56:27;9.38;;;1.98;;
39518;SDS011;25200;53.394;10.414;2024-01-15T04:58:53;16.00;;;1.98;;
39518;SDS011;25200;53.394;10.414;2024-01-15T05:01:18;10.98;;;2.00;;
39518;SDS011;25200;53.394;10.414;2024-01-15T05:03:44;16.98;;;2.13;;
39518;SDS011;25200;53.394;10.414;2024-01-15T05:06:10;7.95;;;1.73;;
39518;SDS011;25200;53.394;10.414;2024-01-15T05:08:35;10.73;;;1.92;;
39518;SDS011;25200;53.394;10.414;2024-01-15T05:11:01;10.18;;;2.33;;
39518;SDS011;25200;53.394;10.414;2024-01-15T05:13:27;20.30;;;3.15;;
39518;SDS011;25200;53.394;10.414;2024-01-15T05:15:53;13.05;;;2.28;;
39518;SDS011;25200;53.394;10.414;2024-01-15T05:18:18;9.73;;;2.13;;
39518;SDS011;25200;53.394;10.414;2024-01-15T05:20:44;13.25;;;1.98;;
39518;SDS011;25200;53.394;10.414;2024-01-15T05:23:10;9.10;;;1.60;;
39518;SDS011;25200;53.394;10.414;2024-01-15T05:25:36;10.32;;;1.67;;
39518;SDS011;25200;53.394;10.414;2024-01-15T05:28:01;16.23;;;2.58;;
39518;SDS011;25200;53.394;10.414;2024-01-15T05:30:27;14.27;;;2.35;;
39518;SDS011;25200;53.394;10.414;2024-01-15T05:32:53;7.78;;;2.03;;
39518;SDS011;25200;53.394;10.414;2024-01-15T05:35:19;19.25;;;2.28;;
39518;SDS011;25200;53.394;10.414;2024-01-15T05:37:45;12.80;;;2.08;;
39518;SDS011;25200;53.394;10.414;2024-01-15T05:40:11;12.95;;;1.98;;
39518;SDS011;25200;53.394;10.414;2024-01-15T05:42:41;12.68;;;2.15;;
39518;SDS011;25200;53.394;10.414;2024-01-15T05:45:07;18.42;;;2.25;;
39518;SDS011;25200;53.394;10.414;2024-01-15T05:47:33;15.50;;;2.60;;
39518;SDS011;25200;53.394;10.414;2024-01-15T05:50:00;12.00;;;1.77;;
39518;SDS011;25200;53.394;10.414;2024-01-15T05:52:26;13.30;;;1.52;;
39518;SDS011;25200;53.394;10.414;2024-01-15T05:54:52;18.45;;;2.17;;
39518;SDS011;25200;53.394;10.414;2024-01-15T05:57:17;15.70;;;2.53;;
39518;SDS011;25200;53.394;10.414;2024-01-15T05:59:43;12.18;;;1.70;;
39518;SDS011;25200;53.394;10.414;2024-01-15T06:02:09;12.40;;;1.98;;
39518;SDS011;25200;53.394;10.414;2024-01-15T06:04:35;14.10;;;2.05;;
39518;SDS011;25200;53.394;10.414;2024-01-15T06:07:01;10.80;;;1.67;;
39518;SDS011;25200;53.394;10.414;2024-01-15T06:09:27;10.60;;;1.95;;
39518;SDS011;25200;53.394;10.414;2024-01-15T06:11:53;13.90;;;2.25;;
39518;SDS011;25200;53.394;10.414;2024-01-15T06:14:19;9.57;;;2.05;;
39518;SDS011;25200;53.394;10.414;2024-01-15T06:16:44;18.58;;;2.60;;
39518;SDS011;25200;53.394;10.414;2024-01-15T06:19:10;10.70;;;2.15;;
39518;SDS011;25200;53.394;10.414;2024-01-15T06:21:36;13.10;;;1.67;;
39518;SDS011;25200;53.394;10.414;2024-01-15T06:24:01;12.05;;;1.88;;
39518;SDS011;25200;53.394;10.414;2024-01-15T06:26:27;13.35;;;2.70;;
39518;SDS011;25200;53.394;10.414;2024-01-15T06:28:52;14.45;;;2.03;;
39518;SDS011;25200;53.394;10.414;2024-01-15T06:31:18;16.42;;;2.40;;
39518;SDS011;25200;53.394;10.414;2024-01-15T06:33:44;16.15;;;2.28;;
39518;SDS011;25200;53.394;10.414;2024-01-15T06:36:12;17.35;;;2.08;;
39518;SDS011;25200;53.394;10.414;2024-01-15T06:38:38;16.48;;;1.88;;
39518;SDS011;25200;53.394;10.414;2024-01-15T06:41:03;9.55;;;1.80;;
39518;SDS011;25200;53.394;10.414;2024-01-15T06:43:29;12.75;;;1.80;;
39518;SDS011;25200;53.394;10.414;2024-01-15T06:45:55;11.18;;;1.90;;
39518;SDS011;25200;53.394;10.414;2024-01-15T06:48:20;14.43;;;2.13;;
39518;SDS011;25200;53.394;10.414;2024-01-15T06:50:46;13.40;;;2.25;;
39518;SDS011;25200;53.394;10.414;2024-01-15T06:53:12;9.25;;;1.80;;
39518;SDS011;25200;53.394;10.414;2024-01-15T06:55:38;13.40;;;1.80;;
39518;SDS011;25200;53.394;10.414;2024-01-15T06:58:04;10.93;;;2.15;;
39518;SDS011;25200;53.394;10.414;2024-01-15T07:00:29;10.38;;;1.70;;
39518;SDS011;25200;53.394;10.414;2024-01-15T07:02:55;12.65;;;1.85;;
39518;SDS011;25200;53.394;10.414;2024-01-15T07:05:22;12.40;;;1.70;;
39518;SDS011;25200;53.394;10.414;2024-01-15T07:07:48;7.13;;;1.52;;
39518;SDS011;25200;53.394;10.414;2024-01-15T07:10:14;12.43;;;1.77;;
39518;SDS011;25200;53.394;10.414;2024-01-15T07:12:43;9.38;;;1.70;;
39518;SDS011;25200;53.394;10.414;2024-01-15T07:15:09;10.48;;;1.85;;
39518;SDS011;25200;53.394;10.414;2024-01-15T07:17:35;7.63;;;1.48;;
39518;SDS011;25200;53.394;10.414;2024-01-15T07:20:05;12.63;;;1.60;;
39518;SDS011;25200;53.394;10.414;2024-01-15T07:22:32;13.25;;;2.00;;
39518;SDS011;25200;53.394;10.414;2024-01-15T07:24:58;7.97;;;1.38;;
39518;SDS011;25200;53.394;10.414;2024-01-15T07:27:24;8.80;;;1.90;;
39518;SDS011;25200;53.394;10.414;2024-01-15T07:29:50;12.55;;;1.80;;
39518;SDS011;25200;53.394;10.414;2024-01-15T07:32:15;13.00;;;2.22;;
39518;SDS011;25200;53.394;10.414;2024-01-15T07:34:42;11.93;;;2.05;;
39518;SDS011;25200;53.394;10.414;2024-01-15T07:37:07;11.68;;;1.38;;
39518;SDS011;25200;53.394;10.414;2024-01-15T07:39:33;11.60;;;1.77;;
39518;SDS011;25200;53.394;10.414;2024-01-15T07:41:59;11.32;;;2.22;;
39518;SDS011;25200;53.394;10.414;2024-01-15T07:44:25;8.85;;;1.70;;
39518;SDS011;25200;53.394;10.414;2024-01-15T07:46:51;8.75;;;1.58;;
39518;SDS011;25200;53.394;10.414;2024-01-15T07:49:17;11.93;;;1.80;;
39518;SDS011;25200;53.394;10.414;2024-01-15T07:51:42;13.77;;;2.00;;
39518;SDS011;25200;53.394;10.414;2024-01-15T07:54:08;8.20;;;1.77;;
39518;SDS011;25200;53.394;10.414;2024-01-15T07:56:52;10.15;;;1.48;;
39518;SDS011;25200;53.394;10.414;2024-01-15T07:59:18;9.15;;;1.60;;
39518;SDS011;25200;53.394;10.414;2024-01-15T08:01:44;8.43;;;1.88;;
39518;SDS011;25200;53.394;10.414;2024-01-15T08:04:10;8.15;;;1.60;;
39518;SDS011;25200;53.394;10.414;2024-01-15T08:06:37;6.20;;;1.67;;
39518;SDS011;25200;53.394;10.414;2024-01-15T08:09:03;11.63;;;1.98;;
39518;SDS011;25200;53.394;10.414;2024-01-15T08:11:29;9.50;;;2.10;;
39518;SDS011;25200;53.394;10.414;2024-01-15T08:13:55;10.98;;;1.42;;
39518;SDS011;25200;53.394;10.414;2024-01-15T08:16:21;9.52;;;1.38;;
39518;SDS011;25200;53.394;10.414;2024-01-15T08:18:47;7.03;;;1.50;;
39518;SDS011;25200;53.394;10.414;2024-01-15T08:21:13;6.13;;;1.55;;
39518;SDS011;25200;53.394;10.414;2024-01-15T08:23:38;9.07;;;1.55;;
39518;SDS011;25200;53.394;10.414;2024-01-15T08:26:04;12.40;;;1.58;;
39518;SDS011;25200;53.394;10.414;2024-01-15T08:28:30;6.90;;;1.40;;
39518;SDS011;25200;53.394;10.414;2024-01-15T08:30:56;11.73;;;1.75;;
39518;SDS011;25200;53.394;10.414;2024-01-15T08:33:21;10.88;;;1.63;;
39518;SDS011;25200;53.394;10.414;2024-01-15T08:35:47;9.63;;;1.65;;
39518;SDS011;25200;53.394;10.414;2024-01-15T08:38:13;11.90;;;1.55;;
39518;SDS011;25200;53.394;10.414;2024-01-15T08:40:39;6.00;;;0.98;;
39518;SDS011;25200;53.394;10.414;2024-01-15T08:43:04;4.28;;;1.10;;
39518;SDS011;25200;53.394;10.414;2024-01-15T08:45:31;3.30;;;1.02;;
39518;SDS011;25200;53.394;10.414;2024-01-15T08:47:57;8.75;;;1.30;;
39518;SDS011;25200;53.394;10.414;2024-01-15T08:50:23;8.93;;;1.27;;
39518;SDS011;25200;53.394;10.414;2024-01-15T08:52:49;5.47;;;1.40;;
39518;SDS011;25200;53.394;10.414;2024-01-15T08:55:14;5.82;;;0.82;;
39518;SDS011;25200;53.394;10.414;2024-01-15T08:57:40;7.50;;;1.65;;
39518;SDS011;25200;53.394;10.414;2024-01-15T09:00:06;5.88;;;1.33;;
39518;SDS011;25200;53.394;10.414;2024-01-15T09:02:34;5.75;;;1.27;;
39518;SDS011;25200;53.394;10.414;2024-01-15T09:05:01;7.00;;;1.30;;
39518;SDS011;25200;53.394;10.414;2024-01-15T09:07:27;4.95;;;1.00;;
39518;SDS011;25200;53.394;10.414;2024-01-15T09:09:53;2.92;;;1.10;;
39518;SDS011;25200;53.394;10.414;2024-01-15T09:12:18;8.07;;;1.00;;
39518;SDS011;25200;53.394;10.414;2024-01-15T09:14:46;5.65;;;1.10;;
39518;SDS011;25200;53.394;10.414;2024-01-15T09:17:12;5.97;;;1.20;;
39518;SDS011;25200;53.394;10.414;2024-01-15T09:19:38;5.35;;;1.00;;
39518;SDS011;25200;53.394;10.414;2024-01-15T09:22:06;2.53;;;0.70;;
39518;SDS011;25200;53.394;10.414;2024-01-15T09:24:32;4.47;;;1.20;;
39518;SDS011;25200;53.394;10.414;2024-01-15T09:26:58;2.38;;;0.95;;
39518;SDS011;25200;53.394;10.414;2024-01-15T09:29:23;6.75;;;1.20;;
39518;SDS011;25200;53.394;10.414;2024-01-15T09:31:49;6.05;;;0.93;;
39518;SDS011;25200;53.394;10.414;2024-01-15T09:34:15;5.45;;;1.10;;
39518;SDS011;25200;53.394;10.414;2024-01-15T09:36:41;3.15;;;0.93;;
39518;SDS011;25200;53.394;10.414;2024-01-15T09:39:08;2.00;;;0.80;;
39518;SDS011;25200;53.394;10.414;2024-01-15T09:41:37;2.67;;;0.93;;
39518;SDS011;25200;53.394;10.414;2024-01-15T09:44:03;5.60;;;1.20;;
39518;SDS011;25200;53.394;10.414;2024-01-15T09:46:31;3.72;;;1.23;;
39518;SDS011;25200;53.394;10.414;2024-01-15T09:48:57;5.88;;;2.17;;
39518;SDS011;25200;53.394;10.414;2024-01-15T09:51:24;6.07;;;1.50;;
39518;SDS011;25200;53.394;10.414;2024-01-15T09:53:50;6.82;;;1.92;;
39518;SDS011;25200;53.394;10.414;2024-01-15T09:56:15;3.88;;;0.85;;
39518;SDS011;25200;53.394;10.414;2024-01-15T09:58:41;6.53;;;1.60;;
39518;SDS011;25200;53.394;10.414;2024-01-15T10:01:08;3.13;;;1.10;;
39518;SDS011;25200;53.394;10.414;2024-01-15T10:03:34;4.63;;;0.93;;
39518;SDS011;25200;53.394;10.414;2024-01-15T10:06:00;3.33;;;1.02;;
39518;SDS011;25200;53.394;10.414;2024-01-15T10:08:27;5.28;;;0.90;;
39518;SDS011;25200;53.394;10.414;2024-01-15T10:10:53;4.65;;;0.75;;
39518;SDS011;25200;53.394;10.414;2024-01-15T10:13:19;3.30;;;1.20;;
39518;SDS011;25200;53.394;10.414;2024-01-15T10:15:46;4.95;;;1.13;;
39518;SDS011;25200;53.394;10.414;2024-01-15T10:18:15;4.70;;;0.90;;
39518;SDS011;25200;53.394;10.414;2024-01-15T10:20:41;7.25;;;2.10;;
39518;SDS011;25200;53.394;10.414;2024-01-15T10:23:07;2.15;;;1.00;;
39518;SDS011;25200;53.394;10.414;2024-01-15T10:25:34;3.03;;;0.80;;
39518;SDS011;25200;53.394;10.414;2024-01-15T10:28:02;9.77;;;1.73;;
39518;SDS011;25200;53.394;10.414;2024-01-15T10:30:29;2.15;;;0.77;;
39518;SDS011;25200;53.394;10.414;2024-01-15T10:32:58;4.45;;;1.13;;
39518;SDS011;25200;53.394;10.414;2024-01-15T10:35:26;3.00;;;0.90;;
39518;SDS011;25200;53.394;10.414;2024-01-15T10:37:53;4.20;;;1.05;;
39518;SDS011;25200;53.394;10.414;2024-01-15T10:40:19;5.90;;;1.80;;
39518;SDS011;25200;53.394;10.414;2024-01-15T10:42:45;4.35;;;1.50;;
39518;SDS011;25200;53.394;10.414;2024-01-15T10:45:12;5.75;;;1.55;;
39518;SDS011;25200;53.394;10.414;2024-01-15T10:47:38;6.80;;;1.63;;
39518;SDS011;25200;53.394;10.414;2024-01-15T10:50:04;3.50;;;1.02;;
39518;SDS011;25200;53.394;10.414;2024-01-15T10:52:33;6.20;;;1.20;;
39518;SDS011;25200;53.394;10.414;2024-01-15T10:55:00;5.35;;;1.25;;
39518;SDS011;25200;53.394;10.414;2024-01-15T10:57:27;2.38;;;0.93;;
39518;SDS011;25200;53.394;10.414;2024-01-15T10:59:54;2.72;;;0.82;;
39518;SDS011;25200;53.394;10.414;2024-01-15T11:02:19;3.63;;;1.50;;
39518;SDS011;25200;53.394;10.414;2024-01-15T11:04:45;4.38;;;1.20;;
39518;SDS011;25200;53.394;10.414;2024-01-15T11:07:11;5.68;;;1.58;;
39518;SDS011;25200;53.394;10.414;2024-01-15T11:09:38;3.83;;;1.17;;
39518;SDS011;25200;53.394;10.414;2024-01-15T11:12:08;2.17;;;0.80;;
39518;SDS011;25200;53.394;10.414;2024-01-15T11:17:05;5.28;;;1.20;;
39518;SDS011;25200;53.394;10.414;2024-01-15T11:22:09;4.63;;;1.30;;
39518;SDS011;25200;53.394;10.414;2024-01-15T11:24:39;3.42;;;0.75;;
39518;SDS011;25200;53.394;10.414;2024-01-15T11:27:06;2.15;;;0.70;;
39518;SDS011;25200;53.394;10.414;2024-01-15T11:29:34;2.78;;;0.43;;
39518;SDS011;25200;53.394;10.414;2024-01-15T11:32:04;2.15;;;0.50;;
39518;SDS011;25200;53.394;10.414;2024-01-15T11:37:19;2.13;;;0.98;;
39518;SDS011;25200;53.394;10.414;2024-01-15T11:39:45;3.13;;;1.35;;
39518;SDS011;25200;53.394;10.414;2024-01-15T11:42:12;5.78;;;1.40;;
39518;SDS011;25200;53.394;10.414;2024-01-15T11:44:38;3.78;;;1.50;;
39518;SDS011;25200;53.394;10.414;2024-01-15T11:52:23;4.85;;;1.60;;
39518;SDS011;25200;53.394;10.414;2024-01-15T11:57:29;4.70;;;1.90;;
39518;SDS011;25200;53.394;10.414;2024-01-15T12:00:10;4.85;;;1.52;;
39518;SDS011;25200;53.394;10.414;2024-01-15T12:02:38;5.82;;;2.03;;
39518;SDS011;25200;53.394;10.414;2024-01-15T12:05:06;4.72;;;1.83;;
39518;SDS011;25200;53.394;10.414;2024-01-15T12:07:33;8.52;;;2.85;;
39518;SDS011;25200;53.394;10.414;2024-01-15T12:09:59;5.43;;;1.98;;
39518;SDS011;25200;53.394;10.414;2024-01-15T12:12:33;5.82;;;2.15;;
39518;SDS011;25200;53.394;10.414;2024-01-15T12:15:09;8.85;;;2.55;;
39518;SDS011;25200;53.394;10.414;2024-01-15T12:17:35;7.78;;;2.40;;
39518;SDS011;25200;53.394;10.414;2024-01-15T12:20:02;8.52;;;2.65;;
39518;SDS011;25200;53.394;10.414;2024-01-15T12:22:31;7.50;;;2.15;;
39518;SDS011;25200;53.394;10.414;2024-01-15T12:24:57;6.00;;;1.48;;
39518;SDS011;25200;53.394;10.414;2024-01-15T12:27:22;7.90;;;2.38;;
39518;SDS011;25200;53.394;10.414;2024-01-15T12:29:49;6.80;;;2.53;;
39518;SDS011;25200;53.394;10.414;2024-01-15T12:32:14;8.48;;;2.38;;
39518;SDS011;25200;53.394;10.414;2024-01-15T12:34:40;6.47;;;2.72;;
39518;SDS011;25200;53.394;10.414;2024-01-15T12:37:09;6.85;;;2.20;;
39518;SDS011;25200;53.394;10.414;2024-01-15T12:39:36;7.13;;;2.40;;
39518;SDS011;25200;53.394;10.414;2024-01-15T12:42:02;6.07;;;1.35;;
39518;SDS011;25200;53.394;10.414;2024-01-15T12:44:28;3.13;;;1.48;;
39518;SDS011;25200;53.394;10.414;2024-01-15T12:46:54;4.78;;;1.60;;
39518;SDS011;25200;53.394;10.414;2024-01-15T12:49:20;3.88;;;1.40;;
39518;SDS011;25200;53.394;10.414;2024-01-15T12:51:56;4.25;;;1.83;;
39518;SDS011;25200;53.394;10.414;2024-01-15T12:54:24;8.90;;;2.60;;
39518;SDS011;25200;53.394;10.414;2024-01-15T12:56:51;9.82;;;3.83;;
39518;SDS011;25200;53.394;10.414;2024-01-15T12:59:17;7.22;;;2.80;;
39518;SDS011;25200;53.394;10.414;2024-01-15T13:01:43;10.00;;;3.45;;
39518;SDS011;25200;53.394;10.414;2024-01-15T13:04:10;6.65;;;2.85;;
39518;SDS011;25200;53.394;10.414;2024-01-15T13:06:36;6.88;;;2.45;;
39518;SDS011;25200;53.394;10.414;2024-01-15T13:09:02;5.80;;;2.35;;
39518;SDS011;25200;53.394;10.414;2024-01-15T13:11:31;4.50;;;1.80;;
39518;SDS011;25200;53.394;10.414;2024-01-15T13:13:58;5.60;;;1.63;;
39518;SDS011;25200;53.394;10.414;2024-01-15T13:16:23;3.58;;;1.58;;
39518;SDS011;25200;53.394;10.414;2024-01-15T13:18:52;3.65;;;1.45;;
39518;SDS011;25200;53.394;10.414;2024-01-15T13:21:17;5.50;;;1.70;;
39518;SDS011;25200;53.394;10.414;2024-01-15T13:23:43;4.97;;;2.35;;
39518;SDS011;25200;53.394;10.414;2024-01-15T13:26:09;6.05;;;2.45;;
39518;SDS011;25200;53.394;10.414;2024-01-15T13:28:34;5.43;;;2.10;;
39518;SDS011;25200;53.394;10.414;2024-01-15T13:31:00;5.72;;;2.25;;
39518;SDS011;25200;53.394;10.414;2024-01-15T13:33:26;5.93;;;2.00;;
39518;SDS011;25200;53.394;10.414;2024-01-15T13:35:51;4.20;;;1.70;;
39518;SDS011;25200;53.394;10.414;2024-01-15T13:38:17;4.47;;;1.73;;
39518;SDS011;25200;53.394;10.414;2024-01-15T13:40:43;5.35;;;1.80;;
39518;SDS011;25200;53.394;10.414;2024-01-15T13:43:10;3.08;;;1.40;;
39518;SDS011;25200;53.394;10.414;2024-01-15T13:45:36;2.67;;;1.20;;
39518;SDS011;25200;53.394;10.414;2024-01-15T13:48:02;3.92;;;1.70;;
39518;SDS011;25200;53.394;10.414;2024-01-15T13:50:33;4.03;;;1.92;;
39518;SDS011;25200;53.394;10.414;2024-01-15T13:53:00;4.55;;;1.95;;
39518;SDS011;25200;53.394;10.414;2024-01-15T13:55:26;3.78;;;1.70;;
39518;SDS011;25200;53.394;10.414;2024-01-15T13:57:53;3.72;;;1.60;;
39518;SDS011;25200;53.394;10.414;2024-01-15T14:00:19;3.92;;;1.40;;
39518;SDS011;25200;53.394;10.414;2024-01-15T14:02:45;5.32;;;2.20;;
39518;SDS011;25200;53.394;10.414;2024-01-15T14:05:11;5.45;;;2.17;;
39518;SDS011;25200;53.394;10.414;2024-01-15T14:07:40;3.88;;;1.95;;
39518;SDS011;25200;53.394;10.414;2024-01-15T14:10:09;4.20;;;1.90;;
39518;SDS011;25200;53.394;10.414;2024-01-15T14:12:35;4.07;;;1.55;;
39518;SDS011;25200;53.394;10.414;2024-01-15T14:15:04;4.68;;;2.00;;
39518;SDS011;25200;53.394;10.414;2024-01-15T14:17:31;4.57;;;1.85;;
39518;SDS011;25200;53.394;10.414;2024-01-15T14:19:56;3.95;;;1.52;;
39518;SDS011;25200;53.394;10.414;2024-01-15T14:22:22;3.33;;;1.52;;
39518;SDS011;25200;53.394;10.414;2024-01-15T14:24:48;3.05;;;1.50;;
39518;SDS011;25200;53.394;10.414;2024-01-15T14:27:14;3.30;;;1.50;;
39518;SDS011;25200;53.394;10.414;2024-01-15T14:29:39;2.97;;;1.23;;
39518;SDS011;25200;53.394;10.414;2024-01-15T14:32:05;4.22;;;1.40;;
39518;SDS011;25200;53.394;10.414;2024-01-15T14:34:31;2.92;;;1.40;;
39518;SDS011;25200;53.394;10.414;2024-01-15T14:36:57;3.28;;;1.33;;
39518;SDS011;25200;53.394;10.414;2024-01-15T14:39:23;4.13;;;1.60;;
39518;SDS011;25200;53.394;10.414;2024-01-15T14:41:49;3.50;;;1.65;;